TAP22 SBGR-SBBR
Flight info
| Callsign | TAP22 |
|---|---|
| Flight time | 1h 29m |
| Altitude | 40000 |
| Route | ISMOB UZ26 BIXAN/N0478F430 UZ26 AZOIC |
| Aircraft | A359/H-SDE2E3GHIJ3J4J5LM1ORWXY/LB1D1 |
Departure
| Time | 2026-04-26 22:45 |
|---|---|
| Airport | São Paulo/Guarulhos–Governor André Franco Montoro International Airport (SBGR) |
Arrival
| Time | 2026-04-27 00:14 |
|---|---|
| Airport | Presidente Juscelino Kubitschek International Airport (SBBR) |
| Time | Latitude | Longitude | Altitude | Speed | Heading |
|---|---|---|---|---|---|
| 2026-04-26 21:58 | -23.42612 | -46.47083 | 2478 ft | 0 kts | 74° |
| 2026-04-26 22:26 | -23.42615 | -46.47094 | 2478 ft | 3 kts | 74° |
| 2026-04-26 22:26 | -23.42620 | -46.47114 | 2478 ft | 3 kts | 74° |
| 2026-04-26 22:26 | -23.42623 | -46.47136 | 2478 ft | 3 kts | 113° |
| 2026-04-26 22:26 | -23.42610 | -46.47154 | 2478 ft | 3 kts | 156° |
| 2026-04-26 22:27 | -23.42601 | -46.47158 | 2478 ft | 0 kts | 179° |
| 2026-04-26 22:34 | -23.42661 | -46.47152 | 2478 ft | 12 kts | 172° |
| 2026-04-26 22:34 | -23.42740 | -46.47149 | 2478 ft | 11 kts | 174° |
| 2026-04-26 22:34 | -23.42818 | -46.47125 | 2478 ft | 10 kts | 145° |
| 2026-04-26 22:35 | -23.42828 | -46.47074 | 2478 ft | 7 kts | 78° |
| 2026-04-26 22:35 | -23.42813 | -46.47015 | 2478 ft | 9 kts | 73° |
| 2026-04-26 22:35 | -23.42793 | -46.46939 | 2478 ft | 12 kts | 73° |
| 2026-04-26 22:35 | -23.42767 | -46.46844 | 2478 ft | 14 kts | 74° |
| 2026-04-26 22:36 | -23.42737 | -46.46732 | 2478 ft | 17 kts | 74° |
| 2026-04-26 22:36 | -23.42703 | -46.46605 | 2477 ft | 19 kts | 73° |
| 2026-04-26 22:36 | -23.42665 | -46.46462 | 2477 ft | 21 kts | 73° |
| 2026-04-26 22:36 | -23.42623 | -46.46303 | 2477 ft | 23 kts | 73° |
| 2026-04-26 22:37 | -23.42577 | -46.46133 | 2476 ft | 24 kts | 73° |
| 2026-04-26 22:37 | -23.42529 | -46.45954 | 2476 ft | 25 kts | 73° |
| 2026-04-26 22:37 | -23.42478 | -46.45768 | 2476 ft | 23 kts | 73° |
| 2026-04-26 22:37 | -23.42439 | -46.45625 | 2476 ft | 20 kts | 73° |
| 2026-04-26 22:38 | -23.42398 | -46.45471 | 2476 ft | 22 kts | 73° |
| 2026-04-26 22:38 | -23.42354 | -46.45308 | 2475 ft | 24 kts | 73° |
| 2026-04-26 22:38 | -23.42304 | -46.45129 | 2478 ft | 25 kts | 73° |
| 2026-04-26 22:38 | -23.42289 | -46.44961 | 2474 ft | 14 kts | 117° |
| 2026-04-26 22:39 | -23.42367 | -46.44911 | 2478 ft | 4 kts | 163° |
| 2026-04-26 22:44 | -23.42367 | -46.44910 | 2479 ft | 0 kts | 163° |
| 2026-04-26 22:44 | -23.42426 | -46.44898 | 2477 ft | 16 kts | 177° |
| 2026-04-26 22:44 | -23.42544 | -46.45034 | 2477 ft | 56 kts | 247° |
| 2026-04-26 22:44 | -23.42661 | -46.45480 | 2475 ft | 82 kts | 253° |
| 2026-04-26 22:45 | -23.42912 | -46.46416 | 2480 ft | 173 kts | 253° |
| 2026-04-26 22:45 | -23.43319 | -46.47928 | 2742 ft | 232 kts | 253° |
| 2026-04-26 22:45 | -23.43652 | -46.49581 | 4359 ft | 208 kts | 272° |
| 2026-04-26 22:45 | -23.43237 | -46.50904 | 6373 ft | 175 kts | 305° |
| 2026-04-26 22:46 | -23.42570 | -46.52110 | 7333 ft | 200 kts | 293° |
| 2026-04-26 22:46 | -23.42092 | -46.53699 | 7788 ft | 247 kts | 284° |
| 2026-04-26 22:46 | -23.41647 | -46.55668 | 8330 ft | 279 kts | 285° |
| 2026-04-26 22:46 | -23.41174 | -46.57697 | 9507 ft | 270 kts | 284° |
| 2026-04-26 22:47 | -23.40725 | -46.59603 | 10925 ft | 248 kts | 284° |
| 2026-04-26 22:47 | -23.40313 | -46.61314 | 12432 ft | 224 kts | 284° |
| 2026-04-26 22:47 | -23.39916 | -46.63064 | 12795 ft | 256 kts | 283° |
| 2026-04-26 22:47 | -23.39473 | -46.65025 | 13313 ft | 272 kts | 283° |
| 2026-04-26 22:48 | -23.39012 | -46.66966 | 14390 ft | 262 kts | 284° |
| 2026-04-26 22:48 | -23.38316 | -46.68770 | 15568 ft | 251 kts | 298° |
| 2026-04-26 22:48 | -23.37216 | -46.70268 | 16210 ft | 268 kts | 310° |
| 2026-04-26 22:48 | -23.35769 | -46.71710 | 16435 ft | 293 kts | 316° |
| 2026-04-26 22:49 | -23.34172 | -46.73214 | 16818 ft | 312 kts | 314° |
| 2026-04-26 22:49 | -23.32526 | -46.74861 | 17182 ft | 329 kts | 313° |
| 2026-04-26 22:49 | -23.30813 | -46.76621 | 17544 ft | 346 kts | 313° |
| 2026-04-26 22:49 | -23.29035 | -46.78467 | 17971 ft | 359 kts | 313° |
| 2026-04-26 22:50 | -23.27210 | -46.80370 | 18506 ft | 366 kts | 313° |
| 2026-04-26 22:50 | -23.25368 | -46.82296 | 19102 ft | 369 kts | 313° |
| 2026-04-26 22:50 | -23.23511 | -46.84244 | 19768 ft | 371 kts | 313° |
| 2026-04-26 22:50 | -23.21649 | -46.86196 | 20444 ft | 372 kts | 313° |
| 2026-04-26 22:51 | -23.19768 | -46.88096 | 21104 ft | 376 kts | 317° |
| 2026-04-26 22:51 | -23.17601 | -46.89722 | 21752 ft | 381 kts | 325° |
| 2026-04-26 22:51 | -23.15304 | -46.91207 | 22339 ft | 385 kts | 326° |
| 2026-04-26 22:51 | -23.12980 | -46.92684 | 22964 ft | 387 kts | 326° |
| 2026-04-26 22:52 | -23.10657 | -46.94165 | 23591 ft | 389 kts | 326° |
| 2026-04-26 22:52 | -23.08309 | -46.95665 | 24089 ft | 392 kts | 326° |
| 2026-04-26 22:52 | -23.05943 | -46.97184 | 24590 ft | 396 kts | 326° |
| 2026-04-26 22:52 | -23.03558 | -46.98710 | 25131 ft | 398 kts | 325° |
| 2026-04-26 22:53 | -23.01162 | -47.00244 | 25688 ft | 401 kts | 325° |
| 2026-04-26 22:53 | -22.98777 | -47.01771 | 26228 ft | 404 kts | 325° |
| 2026-04-26 22:53 | -22.96290 | -47.03268 | 26701 ft | 412 kts | 330° |
| 2026-04-26 22:53 | -22.93480 | -47.04215 | 27252 ft | 424 kts | 345° |
| 2026-04-26 22:54 | -22.90549 | -47.04671 | 27783 ft | 430 kts | 348° |
| 2026-04-26 22:54 | -22.87592 | -47.05057 | 28304 ft | 433 kts | 348° |
| 2026-04-26 22:54 | -22.84547 | -47.05459 | 28832 ft | 437 kts | 348° |
| 2026-04-26 22:54 | -22.81517 | -47.05861 | 29373 ft | 440 kts | 347° |
| 2026-04-26 22:55 | -22.78471 | -47.06268 | 29893 ft | 443 kts | 347° |
| 2026-04-26 22:55 | -22.75444 | -47.06676 | 30305 ft | 447 kts | 348° |
| 2026-04-26 22:55 | -22.72332 | -47.07099 | 30702 ft | 450 kts | 348° |
| 2026-04-26 22:55 | -22.69216 | -47.07523 | 31148 ft | 453 kts | 348° |
| 2026-04-26 22:56 | -22.66081 | -47.07946 | 31585 ft | 455 kts | 348° |
| 2026-04-26 22:56 | -22.62925 | -47.08373 | 32003 ft | 457 kts | 348° |
| 2026-04-26 22:56 | -22.59758 | -47.08801 | 32428 ft | 460 kts | 348° |
| 2026-04-26 22:56 | -22.56576 | -47.09232 | 32846 ft | 462 kts | 348° |
| 2026-04-26 22:57 | -22.53406 | -47.09661 | 33244 ft | 464 kts | 348° |
| 2026-04-26 22:57 | -22.50152 | -47.10102 | 33611 ft | 467 kts | 348° |
| 2026-04-26 22:57 | -22.46941 | -47.10537 | 33983 ft | 470 kts | 348° |
| 2026-04-26 22:57 | -22.43701 | -47.10975 | 34305 ft | 472 kts | 348° |
| 2026-04-26 22:58 | -22.40423 | -47.11419 | 34600 ft | 474 kts | 348° |
| 2026-04-26 22:58 | -22.37152 | -47.11860 | 35042 ft | 473 kts | 348° |
| 2026-04-26 22:58 | -22.33895 | -47.12299 | 35479 ft | 471 kts | 348° |
| 2026-04-26 22:58 | -22.30646 | -47.12738 | 35902 ft | 470 kts | 348° |
| 2026-04-26 22:59 | -22.27393 | -47.13177 | 36283 ft | 470 kts | 348° |
| 2026-04-26 22:59 | -22.24150 | -47.13614 | 36681 ft | 469 kts | 348° |
| 2026-04-26 22:59 | -22.20952 | -47.14046 | 37091 ft | 468 kts | 348° |
| 2026-04-26 22:59 | -22.17725 | -47.14481 | 37504 ft | 466 kts | 348° |
| 2026-04-26 23:00 | -22.14501 | -47.14915 | 37904 ft | 465 kts | 348° |
| 2026-04-26 23:00 | -22.11288 | -47.15348 | 38290 ft | 464 kts | 348° |
| 2026-04-26 23:00 | -22.08076 | -47.15781 | 38656 ft | 463 kts | 349° |
| 2026-04-26 23:00 | -22.04876 | -47.16212 | 38972 ft | 462 kts | 349° |
| 2026-04-26 23:01 | -22.01723 | -47.16637 | 39255 ft | 461 kts | 349° |
| 2026-04-26 23:01 | -21.98525 | -47.17067 | 39543 ft | 460 kts | 349° |
| 2026-04-26 23:01 | -21.95346 | -47.17494 | 39830 ft | 459 kts | 349° |
| 2026-04-26 23:01 | -21.92201 | -47.17917 | 40019 ft | 460 kts | 349° |
| 2026-04-26 23:02 | -21.89026 | -47.18344 | 40068 ft | 459 kts | 349° |
| 2026-04-26 23:02 | -21.82677 | -47.19196 | 40053 ft | 458 kts | 349° |
| 2026-04-26 23:03 | -21.76357 | -47.20045 | 40046 ft | 459 kts | 349° |
| 2026-04-26 23:03 | -21.70005 | -47.20882 | 40047 ft | 459 kts | 349° |
| 2026-04-26 23:04 | -21.63652 | -47.21712 | 40050 ft | 459 kts | 349° |
| 2026-04-26 23:04 | -21.57282 | -47.22546 | 40047 ft | 459 kts | 349° |
| 2026-04-26 23:05 | -21.50972 | -47.23373 | 40049 ft | 459 kts | 349° |
| 2026-04-26 23:05 | -21.44649 | -47.24203 | 40048 ft | 459 kts | 349° |
| 2026-04-26 23:06 | -21.38270 | -47.25039 | 40044 ft | 459 kts | 349° |
| 2026-04-26 23:06 | -21.31941 | -47.25919 | 40049 ft | 459 kts | 348° |
| 2026-04-26 23:07 | -21.25658 | -47.27000 | 40052 ft | 459 kts | 347° |
| 2026-04-26 23:07 | -21.19340 | -47.28106 | 40057 ft | 459 kts | 347° |
| 2026-04-26 23:08 | -21.13049 | -47.29174 | 40054 ft | 459 kts | 348° |
| 2026-04-26 23:08 | -21.06728 | -47.30228 | 40060 ft | 460 kts | 348° |
| 2026-04-26 23:09 | -21.00417 | -47.31276 | 40059 ft | 460 kts | 348° |
| 2026-04-26 23:09 | -20.94068 | -47.32332 | 40060 ft | 460 kts | 348° |
| 2026-04-26 23:10 | -20.87741 | -47.33384 | 40065 ft | 460 kts | 348° |
| 2026-04-26 23:10 | -20.81431 | -47.34432 | 40067 ft | 460 kts | 348° |
| 2026-04-26 23:11 | -20.75099 | -47.35483 | 40066 ft | 460 kts | 348° |
| 2026-04-26 23:11 | -20.68785 | -47.36530 | 40060 ft | 460 kts | 348° |
| 2026-04-26 23:12 | -20.62441 | -47.37582 | 40072 ft | 461 kts | 349° |
| 2026-04-26 23:12 | -20.56118 | -47.38625 | 40071 ft | 461 kts | 349° |
| 2026-04-26 23:13 | -20.49752 | -47.39590 | 40066 ft | 460 kts | 349° |
| 2026-04-26 23:13 | -20.43433 | -47.40519 | 40062 ft | 460 kts | 350° |
| 2026-04-26 23:14 | -20.37065 | -47.41467 | 40067 ft | 461 kts | 350° |
| 2026-04-26 23:14 | -20.30743 | -47.42416 | 40064 ft | 461 kts | 349° |
| 2026-04-26 23:15 | -20.24366 | -47.43376 | 40064 ft | 461 kts | 349° |
| 2026-04-26 23:15 | -20.18026 | -47.44330 | 40064 ft | 461 kts | 350° |
| 2026-04-26 23:16 | -20.11689 | -47.45281 | 40067 ft | 461 kts | 350° |
| 2026-04-26 23:16 | -20.05331 | -47.46234 | 40071 ft | 461 kts | 350° |
| 2026-04-26 23:17 | -19.98994 | -47.47183 | 40067 ft | 461 kts | 350° |
| 2026-04-26 23:17 | -19.92647 | -47.48134 | 40067 ft | 462 kts | 350° |
| 2026-04-26 23:18 | -19.86257 | -47.49090 | 40075 ft | 462 kts | 350° |
| 2026-04-26 23:18 | -19.79894 | -47.50041 | 40078 ft | 462 kts | 350° |
| 2026-04-26 23:19 | -19.73550 | -47.50989 | 40072 ft | 462 kts | 351° |
| 2026-04-26 23:19 | -19.67175 | -47.51927 | 40087 ft | 463 kts | 351° |
| 2026-04-26 23:20 | -19.60814 | -47.52851 | 40089 ft | 463 kts | 351° |
| 2026-04-26 23:20 | -19.54440 | -47.53779 | 40089 ft | 463 kts | 351° |
| 2026-04-26 23:21 | -19.48060 | -47.54710 | 40089 ft | 463 kts | 351° |
| 2026-04-26 23:21 | -19.41684 | -47.55641 | 40085 ft | 464 kts | 351° |
| 2026-04-26 23:22 | -19.35283 | -47.56574 | 40089 ft | 464 kts | 351° |
| 2026-04-26 23:22 | -19.28918 | -47.57502 | 40089 ft | 464 kts | 351° |
| 2026-04-26 23:23 | -19.22531 | -47.58432 | 40086 ft | 463 kts | 351° |
| 2026-04-26 23:23 | -19.16131 | -47.59362 | 40087 ft | 463 kts | 351° |
| 2026-04-26 23:24 | -19.10834 | -47.60132 | 40086 ft | 463 kts | 351° |
| 2026-04-26 23:24 | -19.04443 | -47.61061 | 40085 ft | 462 kts | 351° |
| 2026-04-26 23:25 | -18.98070 | -47.61978 | 40085 ft | 463 kts | 351° |
| 2026-04-26 23:25 | -18.91675 | -47.62859 | 40083 ft | 463 kts | 351° |
| 2026-04-26 23:26 | -18.85412 | -47.63719 | 40084 ft | 464 kts | 351° |
| 2026-04-26 23:26 | -18.79021 | -47.64603 | 40080 ft | 463 kts | 351° |
| 2026-04-26 23:27 | -18.72643 | -47.65489 | 40082 ft | 464 kts | 351° |
| 2026-04-26 23:27 | -18.66258 | -47.66375 | 40081 ft | 465 kts | 351° |
| 2026-04-26 23:28 | -18.59834 | -47.67266 | 40078 ft | 465 kts | 351° |
| 2026-04-26 23:28 | -18.53407 | -47.68205 | 40078 ft | 464 kts | 351° |
| 2026-04-26 23:29 | -18.47002 | -47.69151 | 40074 ft | 466 kts | 351° |
| 2026-04-26 23:29 | -18.40591 | -47.70092 | 40075 ft | 466 kts | 351° |
| 2026-04-26 23:30 | -18.34182 | -47.71031 | 40076 ft | 466 kts | 351° |
| 2026-04-26 23:30 | -18.27810 | -47.72201 | 40073 ft | 465 kts | 346° |
| 2026-04-26 23:31 | -18.21504 | -47.73740 | 40072 ft | 466 kts | 346° |
| 2026-04-26 23:31 | -18.15165 | -47.75283 | 40072 ft | 466 kts | 346° |
| 2026-04-26 23:32 | -18.08864 | -47.76812 | 40072 ft | 466 kts | 346° |
| 2026-04-26 23:32 | -18.02551 | -47.78343 | 40071 ft | 466 kts | 346° |
| 2026-04-26 23:33 | -17.96182 | -47.79886 | 39828 ft | 473 kts | 346° |
| 2026-04-26 23:33 | -17.92988 | -47.80659 | 39593 ft | 476 kts | 346° |
| 2026-04-26 23:33 | -17.89747 | -47.81443 | 39366 ft | 476 kts | 346° |
| 2026-04-26 23:33 | -17.86557 | -47.82215 | 39145 ft | 476 kts | 346° |
| 2026-04-26 23:34 | -17.83308 | -47.83000 | 38926 ft | 476 kts | 346° |
| 2026-04-26 23:34 | -17.80074 | -47.83778 | 38277 ft | 475 kts | 347° |
| 2026-04-26 23:34 | -17.76873 | -47.84552 | 37469 ft | 477 kts | 347° |
| 2026-04-26 23:34 | -17.73639 | -47.85333 | 36762 ft | 477 kts | 347° |
| 2026-04-26 23:35 | -17.70397 | -47.86116 | 36065 ft | 478 kts | 347° |
| 2026-04-26 23:35 | -17.67144 | -47.86901 | 35346 ft | 478 kts | 347° |
| 2026-04-26 23:35 | -17.63930 | -47.87677 | 34818 ft | 475 kts | 347° |
| 2026-04-26 23:35 | -17.60726 | -47.88449 | 34282 ft | 472 kts | 347° |
| 2026-04-26 23:36 | -17.57526 | -47.89221 | 33693 ft | 469 kts | 347° |
| 2026-04-26 23:36 | -17.54331 | -47.89991 | 33134 ft | 465 kts | 347° |
| 2026-04-26 23:36 | -17.51216 | -47.90742 | 32614 ft | 461 kts | 347° |
| 2026-04-26 23:36 | -17.48119 | -47.91488 | 32087 ft | 457 kts | 347° |
| 2026-04-26 23:37 | -17.45013 | -47.92235 | 31567 ft | 454 kts | 347° |
| 2026-04-26 23:37 | -17.41963 | -47.92969 | 31049 ft | 451 kts | 347° |
| 2026-04-26 23:37 | -17.38920 | -47.93702 | 30534 ft | 448 kts | 347° |
| 2026-04-26 23:37 | -17.35874 | -47.94434 | 29983 ft | 446 kts | 347° |
| 2026-04-26 23:38 | -17.32884 | -47.95153 | 29412 ft | 443 kts | 347° |
| 2026-04-26 23:38 | -17.29870 | -47.95877 | 28908 ft | 439 kts | 347° |
| 2026-04-26 23:38 | -17.26932 | -47.96583 | 28392 ft | 435 kts | 347° |
| 2026-04-26 23:38 | -17.23998 | -47.97287 | 27872 ft | 432 kts | 347° |
| 2026-04-26 23:39 | -17.21074 | -47.97990 | 27361 ft | 429 kts | 347° |
| 2026-04-26 23:39 | -17.18184 | -47.98683 | 26841 ft | 426 kts | 347° |
| 2026-04-26 23:39 | -17.15273 | -47.99382 | 26322 ft | 424 kts | 347° |
| 2026-04-26 23:39 | -17.12426 | -48.00065 | 25803 ft | 422 kts | 346° |
| 2026-04-26 23:40 | -17.09575 | -48.00748 | 25282 ft | 421 kts | 346° |
| 2026-04-26 23:40 | -17.06694 | -48.01440 | 24754 ft | 419 kts | 347° |
| 2026-04-26 23:40 | -17.03884 | -48.02113 | 24227 ft | 419 kts | 346° |
| 2026-04-26 23:40 | -17.01058 | -48.02790 | 23692 ft | 418 kts | 346° |
| 2026-04-26 23:41 | -16.98211 | -48.03472 | 23093 ft | 416 kts | 346° |
| 2026-04-26 23:41 | -16.95388 | -48.04148 | 22538 ft | 413 kts | 347° |
| 2026-04-26 23:41 | -16.92614 | -48.04812 | 21999 ft | 409 kts | 347° |
| 2026-04-26 23:41 | -16.89840 | -48.05476 | 21483 ft | 406 kts | 347° |
| 2026-04-26 23:42 | -16.87100 | -48.06132 | 20946 ft | 403 kts | 347° |
| 2026-04-26 23:42 | -16.81667 | -48.07431 | 19900 ft | 397 kts | 347° |
| 2026-04-26 23:42 | -16.78993 | -48.08071 | 19377 ft | 394 kts | 347° |
| 2026-04-26 23:43 | -16.76352 | -48.08701 | 18836 ft | 392 kts | 347° |
| 2026-04-26 23:43 | -16.73663 | -48.09316 | 18237 ft | 391 kts | 348° |
| 2026-04-26 23:43 | -16.71035 | -48.09902 | 17657 ft | 388 kts | 348° |
| 2026-04-26 23:43 | -16.68396 | -48.10495 | 17137 ft | 384 kts | 348° |
| 2026-04-26 23:44 | -16.65823 | -48.11075 | 16619 ft | 379 kts | 348° |
| 2026-04-26 23:44 | -16.63232 | -48.11660 | 16115 ft | 375 kts | 348° |
| 2026-04-26 23:44 | -16.60687 | -48.12234 | 15604 ft | 371 kts | 348° |
| 2026-04-26 23:44 | -16.58194 | -48.12797 | 15111 ft | 368 kts | 348° |
| 2026-04-26 23:45 | -16.55696 | -48.13362 | 14618 ft | 364 kts | 348° |
| 2026-04-26 23:45 | -16.53254 | -48.13914 | 14124 ft | 361 kts | 348° |
| 2026-04-26 23:45 | -16.50794 | -48.14470 | 13596 ft | 358 kts | 348° |
| 2026-04-26 23:45 | -16.48396 | -48.15011 | 13097 ft | 353 kts | 348° |
| 2026-04-26 23:46 | -16.45991 | -48.15555 | 12610 ft | 348 kts | 348° |
| 2026-04-26 23:46 | -16.43646 | -48.16083 | 12135 ft | 345 kts | 348° |
| 2026-04-26 23:46 | -16.41292 | -48.16615 | 11657 ft | 342 kts | 347° |
| 2026-04-26 23:46 | -16.38995 | -48.17134 | 11309 ft | 335 kts | 347° |
| 2026-04-26 23:47 | -16.36775 | -48.17635 | 11165 ft | 321 kts | 347° |
| 2026-04-26 23:47 | -16.34635 | -48.18118 | 11019 ft | 307 kts | 347° |
| 2026-04-26 23:47 | -16.32588 | -48.18579 | 10815 ft | 300 kts | 347° |
| 2026-04-26 23:47 | -16.30545 | -48.19039 | 10458 ft | 299 kts | 347° |
| 2026-04-26 23:48 | -16.28531 | -48.19494 | 10168 ft | 298 kts | 347° |
| 2026-04-26 23:48 | -16.26506 | -48.19956 | 10088 ft | 300 kts | 347° |
| 2026-04-26 23:48 | -16.24481 | -48.20409 | 10066 ft | 286 kts | 347° |
| 2026-04-26 23:48 | -16.22591 | -48.20830 | 10084 ft | 271 kts | 347° |
| 2026-04-26 23:49 | -16.20790 | -48.21232 | 10083 ft | 265 kts | 347° |
| 2026-04-26 23:49 | -16.18986 | -48.21637 | 10061 ft | 266 kts | 347° |
| 2026-04-26 23:49 | -16.17169 | -48.22044 | 9976 ft | 267 kts | 347° |
| 2026-04-26 23:49 | -16.15347 | -48.22335 | 9846 ft | 267 kts | 359° |
| 2026-04-26 23:50 | -16.13495 | -48.22048 | 9638 ft | 267 kts | 14° |
| 2026-04-26 23:50 | -16.11726 | -48.21573 | 9413 ft | 265 kts | 14° |
| 2026-04-26 23:50 | -16.09925 | -48.21095 | 9182 ft | 264 kts | 14° |
| 2026-04-26 23:50 | -16.08166 | -48.20636 | 8959 ft | 262 kts | 14° |
| 2026-04-26 23:51 | -16.06411 | -48.20181 | 8729 ft | 259 kts | 13° |
| 2026-04-26 23:51 | -16.04675 | -48.19734 | 8420 ft | 256 kts | 13° |
| 2026-04-26 23:51 | -16.02943 | -48.19289 | 8163 ft | 254 kts | 13° |
| 2026-04-26 23:51 | -16.01224 | -48.18848 | 7949 ft | 253 kts | 13° |
| 2026-04-26 23:52 | -15.99513 | -48.18432 | 7729 ft | 253 kts | 9° |
| 2026-04-26 23:52 | -15.97783 | -48.18353 | 7509 ft | 251 kts | 356° |
| 2026-04-26 23:52 | -15.96038 | -48.18475 | 7286 ft | 250 kts | 355° |
| 2026-04-26 23:52 | -15.94317 | -48.18408 | 7062 ft | 250 kts | 14° |
| 2026-04-26 23:53 | -15.92838 | -48.17524 | 6856 ft | 248 kts | 47° |
| 2026-04-26 23:53 | -15.91852 | -48.16065 | 6649 ft | 246 kts | 59° |
| 2026-04-26 23:53 | -15.90988 | -48.14519 | 6431 ft | 246 kts | 60° |
| 2026-04-26 23:53 | -15.90138 | -48.12981 | 6222 ft | 244 kts | 62° |
| 2026-04-26 23:54 | -15.89457 | -48.11418 | 6133 ft | 231 kts | 71° |
| 2026-04-26 23:54 | -15.89098 | -48.09861 | 6047 ft | 218 kts | 83° |
| 2026-04-26 23:54 | -15.88963 | -48.08330 | 6018 ft | 205 kts | 86° |
| 2026-04-26 23:54 | -15.88882 | -48.06882 | 5933 ft | 200 kts | 87° |
| 2026-04-26 23:55 | -15.88797 | -48.05444 | 5672 ft | 199 kts | 86° |
| 2026-04-26 23:55 | -15.88691 | -48.04022 | 5526 ft | 193 kts | 85° |
| 2026-04-26 23:55 | -15.88575 | -48.02668 | 5245 ft | 185 kts | 85° |
| 2026-04-26 23:55 | -15.88491 | -48.01367 | 4991 ft | 175 kts | 86° |
| 2026-04-26 23:56 | -15.88373 | -48.00137 | 4708 ft | 167 kts | 83° |
| 2026-04-26 23:56 | -15.88238 | -47.98960 | 4435 ft | 160 kts | 86° |
| 2026-04-26 23:56 | -15.88161 | -47.97829 | 4185 ft | 153 kts | 85° |
| 2026-04-26 23:56 | -15.88093 | -47.96753 | 3936 ft | 146 kts | 86° |
| 2026-04-26 23:57 | -15.88039 | -47.95736 | 3791 ft | 138 kts | 90° |
| 2026-04-26 23:57 | -15.88097 | -47.94733 | 3663 ft | 140 kts | 90° |
| 2026-04-26 23:57 | -15.88059 | -47.93739 | 3540 ft | 140 kts | 84° |
| 2026-04-26 23:57 | -15.87983 | -47.92737 | 3482 ft | 134 kts | 88° |
| 2026-04-26 23:58 | -15.87936 | -47.91818 | 3831 ft | 134 kts | 85° |
| 2026-04-26 23:58 | -15.87828 | -47.90675 | 4292 ft | 179 kts | 84° |
| 2026-04-26 23:58 | -15.87672 | -47.89280 | 5106 ft | 207 kts | 83° |
| 2026-04-26 23:58 | -15.87531 | -47.87657 | 5746 ft | 242 kts | 87° |
| 2026-04-26 23:59 | -15.87454 | -47.85801 | 6008 ft | 274 kts | 88° |
| 2026-04-26 23:59 | -15.87380 | -47.83695 | 6057 ft | 312 kts | 88° |
| 2026-04-26 23:59 | -15.87309 | -47.81464 | 6040 ft | 303 kts | 89° |
| 2026-04-26 23:59 | -15.87659 | -47.79408 | 5934 ft | 281 kts | 113° |
| 2026-04-27 00:00 | -15.88777 | -47.77817 | 5939 ft | 261 kts | 141° |
| 2026-04-27 00:00 | -15.90345 | -47.77044 | 5941 ft | 245 kts | 170° |
| 2026-04-27 00:00 | -15.92011 | -47.77048 | 5951 ft | 243 kts | 189° |
| 2026-04-27 00:00 | -15.93642 | -47.77496 | 5942 ft | 244 kts | 202° |
| 2026-04-27 00:01 | -15.95005 | -47.78527 | 5941 ft | 245 kts | 230° |
| 2026-04-27 00:01 | -15.95732 | -47.80111 | 5951 ft | 245 kts | 258° |
| 2026-04-27 00:01 | -15.95985 | -47.81871 | 6033 ft | 247 kts | 260° |
| 2026-04-27 00:01 | -15.96305 | -47.83633 | 6038 ft | 248 kts | 258° |
| 2026-04-27 00:02 | -15.96648 | -47.85392 | 6040 ft | 248 kts | 258° |
| 2026-04-27 00:02 | -15.96995 | -47.87150 | 6040 ft | 248 kts | 258° |
| 2026-04-27 00:02 | -15.97339 | -47.88886 | 6039 ft | 248 kts | 258° |
| 2026-04-27 00:02 | -15.97689 | -47.90640 | 6043 ft | 247 kts | 258° |
| 2026-04-27 00:03 | -15.98037 | -47.92399 | 6040 ft | 248 kts | 258° |
| 2026-04-27 00:03 | -15.98380 | -47.94148 | 6038 ft | 248 kts | 258° |
| 2026-04-27 00:03 | -15.98725 | -47.95901 | 6034 ft | 248 kts | 258° |
| 2026-04-27 00:03 | -15.99069 | -47.97668 | 6032 ft | 248 kts | 258° |
| 2026-04-27 00:04 | -15.99408 | -47.99404 | 6027 ft | 248 kts | 258° |
| 2026-04-27 00:04 | -15.99751 | -48.01151 | 6023 ft | 245 kts | 258° |
| 2026-04-27 00:04 | -16.00084 | -48.02839 | 6007 ft | 229 kts | 258° |
| 2026-04-27 00:04 | -16.00397 | -48.04401 | 6018 ft | 217 kts | 258° |
| 2026-04-27 00:05 | -16.00703 | -48.05931 | 6025 ft | 215 kts | 258° |
| 2026-04-27 00:05 | -16.01008 | -48.07448 | 6012 ft | 215 kts | 258° |
| 2026-04-27 00:05 | -16.01311 | -48.08973 | 6000 ft | 216 kts | 258° |
| 2026-04-27 00:05 | -16.01615 | -48.10510 | 5997 ft | 215 kts | 258° |
| 2026-04-27 00:06 | -16.01629 | -48.12047 | 5986 ft | 213 kts | 285° |
| 2026-04-27 00:06 | -16.00871 | -48.13283 | 5989 ft | 199 kts | 321° |
| 2026-04-27 00:06 | -15.99702 | -48.14000 | 5844 ft | 194 kts | 335° |
| 2026-04-27 00:06 | -15.98477 | -48.14569 | 5636 ft | 190 kts | 338° |
| 2026-04-27 00:07 | -15.97289 | -48.15101 | 5477 ft | 182 kts | 338° |
| 2026-04-27 00:07 | -15.96150 | -48.15610 | 5326 ft | 175 kts | 338° |
| 2026-04-27 00:07 | -15.95056 | -48.16102 | 5164 ft | 169 kts | 338° |
| 2026-04-27 00:07 | -15.93991 | -48.16579 | 5003 ft | 163 kts | 338° |
| 2026-04-27 00:08 | -15.92940 | -48.16847 | 4962 ft | 152 kts | 5° |
| 2026-04-27 00:08 | -15.92057 | -48.16359 | 4973 ft | 144 kts | 54° |
| 2026-04-27 00:08 | -15.91710 | -48.15419 | 4948 ft | 140 kts | 80° |
| 2026-04-27 00:08 | -15.91536 | -48.14388 | 4528 ft | 150 kts | 75° |
| 2026-04-27 00:09 | -15.91105 | -48.13429 | 4349 ft | 140 kts | 61° |
| 2026-04-27 00:09 | -15.90607 | -48.12561 | 4536 ft | 140 kts | 59° |
| 2026-04-27 00:09 | -15.90176 | -48.11657 | 4851 ft | 141 kts | 75° |
| 2026-04-27 00:09 | -15.90020 | -48.10654 | 4991 ft | 140 kts | 84° |
| 2026-04-27 00:10 | -15.89895 | -48.09655 | 5008 ft | 139 kts | 78° |
| 2026-04-27 00:10 | -15.89768 | -48.08675 | 5014 ft | 139 kts | 80° |
| 2026-04-27 00:10 | -15.89464 | -48.07711 | 5022 ft | 139 kts | 69° |
| 2026-04-27 00:10 | -15.89251 | -48.06750 | 5014 ft | 140 kts | 95° |
| 2026-04-27 00:11 | -15.89401 | -48.05758 | 5033 ft | 140 kts | 100° |
| 2026-04-27 00:11 | -15.89611 | -48.04775 | 5037 ft | 139 kts | 103° |
| 2026-04-27 00:11 | -15.89512 | -48.03775 | 4990 ft | 142 kts | 73° |
| 2026-04-27 00:11 | -15.89226 | -48.02802 | 4884 ft | 140 kts | 73° |
| 2026-04-27 00:12 | -15.89070 | -48.02150 | 4799 ft | 140 kts | 77° |
| 2026-04-27 00:12 | -15.88752 | -48.00852 | 4581 ft | 138 kts | 74° |
| 2026-04-27 00:12 | -15.88590 | -48.00218 | 4508 ft | 137 kts | 76° |
| 2026-04-27 00:12 | -15.88441 | -47.99238 | 4376 ft | 138 kts | 87° |
| 2026-04-27 00:13 | -15.88371 | -47.98240 | 4260 ft | 139 kts | 86° |
| 2026-04-27 00:13 | -15.88303 | -47.97238 | 4053 ft | 140 kts | 85° |
| 2026-04-27 00:13 | -15.88233 | -47.96236 | 3828 ft | 139 kts | 86° |
| 2026-04-27 00:13 | -15.88150 | -47.95234 | 3663 ft | 139 kts | 85° |
| 2026-04-27 00:14 | -15.88084 | -47.94226 | 3543 ft | 140 kts | 86° |
| 2026-04-27 00:14 | -15.88018 | -47.93227 | 3480 ft | 135 kts | 86° |
| 2026-04-27 00:14 | -15.87969 | -47.92469 | 3480 ft | 65 kts | 86° |
| 2026-04-27 00:14 | -15.87954 | -47.92224 | 3480 ft | 25 kts | 86° |
| 2026-04-27 00:15 | -15.87942 | -47.92042 | 3478 ft | 26 kts | 86° |
| 2026-04-27 00:15 | -15.87912 | -47.91862 | 3477 ft | 26 kts | 70° |
| 2026-04-27 00:15 | -15.87818 | -47.91701 | 3472 ft | 26 kts | 55° |
| 2026-04-27 00:15 | -15.87741 | -47.91591 | 3473 ft | 11 kts | 55° |
| 2026-04-27 00:16 | -15.87687 | -47.91550 | 3474 ft | 9 kts | 6° |
| 2026-04-27 00:16 | -15.87619 | -47.91555 | 3474 ft | 11 kts | 356° |
| 2026-04-27 00:16 | -15.87536 | -47.91561 | 3474 ft | 13 kts | 355° |
| 2026-04-27 00:16 | -15.87439 | -47.91569 | 3474 ft | 15 kts | 356° |
| 2026-04-27 00:17 | -15.87330 | -47.91577 | 3476 ft | 17 kts | 356° |
| 2026-04-27 00:17 | -15.87242 | -47.91599 | 3473 ft | 8 kts | 311° |
| 2026-04-27 00:17 | -15.87228 | -47.91655 | 3473 ft | 9 kts | 289° |
| 2026-04-27 00:17 | -15.87183 | -47.91676 | 3476 ft | 8 kts | 355° |
| 2026-04-27 00:18 | -15.87118 | -47.91682 | 3473 ft | 11 kts | 355° |
| 2026-04-27 00:18 | -15.87065 | -47.91701 | 3472 ft | 4 kts | 301° |
| 2026-04-27 00:18 | -15.87064 | -47.91734 | 3473 ft | 6 kts | 266° |
| 2026-04-27 00:18 | -15.87066 | -47.91785 | 3475 ft | 8 kts | 266° |
| 2026-04-27 00:19 | -15.87070 | -47.91856 | 3473 ft | 11 kts | 266° |
| 2026-04-27 00:19 | -15.87051 | -47.91923 | 3473 ft | 6 kts | 332° |
| 2026-04-27 00:19 | -15.87026 | -47.91938 | 3475 ft | 1 kts | 298° |
| 2026-04-27 00:19 | -15.87024 | -47.91944 | 3476 ft | 1 kts | 290° |
| 2026-04-27 00:20 | -15.87023 | -47.91949 | 3476 ft | 0 kts | 285° |
| 2026-04-27 00:20 | -15.87025 | -47.91985 | 3473 ft | 7 kts | 266° |
| 2026-04-27 00:20 | -15.87026 | -47.91989 | 3473 ft | 0 kts | 266° |